createdAt,value
2022-12-06T00:01:33.411Z,101743.38
2022-12-06T00:04:00.554Z,101738.84
2022-12-06T00:06:29.382Z,101749.38
2022-12-06T00:08:56.340Z,101746.66
2022-12-06T00:11:23.959Z,101742.16
2022-12-06T00:13:52.434Z,101737.72
2022-12-06T00:16:18.885Z,101744.03
2022-12-06T00:18:47.258Z,101746.94
2022-12-06T00:21:14.762Z,101748.34
2022-12-06T00:23:44.513Z,101750.22
2022-12-06T00:26:11.078Z,101740.47
2022-12-06T00:28:38.143Z,101740.94
2022-12-06T00:31:05.749Z,101745.25
2022-12-06T00:33:33.355Z,101743.59
2022-12-06T00:36:00.918Z,101736.63
2022-12-06T00:38:27.679Z,101743.59
2022-12-06T00:40:59.647Z,101733.25
2022-12-06T00:43:26.029Z,101739.03
2022-12-06T00:45:52.538Z,101737.34
2022-12-06T00:48:18.956Z,101737.34
2022-12-06T00:50:45.338Z,101736.50
2022-12-06T00:53:11.747Z,101736.41
2022-12-06T00:55:38.093Z,101735.78
2022-12-06T00:58:05.917Z,101743.59
2022-12-06T01:00:32.268Z,101744.50
2022-12-06T01:02:58.635Z,101740.19
2022-12-06T01:05:25.331Z,101737.47
2022-12-06T01:07:51.713Z,101741.03
2022-12-06T01:10:18.147Z,101740.81
2022-12-06T01:12:44.545Z,101743.47
2022-12-06T01:15:12.473Z,101739.59
2022-12-06T01:17:38.782Z,101738.09
2022-12-06T01:20:05.848Z,101741.66
2022-12-06T01:22:32.385Z,101737.34
2022-12-06T01:24:58.912Z,101742.59
2022-12-06T01:27:25.485Z,101740.72
2022-12-06T01:29:51.797Z,101745.81
2022-12-06T01:32:19.513Z,101738.94
2022-12-06T01:34:45.979Z,101736.97
2022-12-06T01:37:12.299Z,101730.97
2022-12-06T01:39:38.680Z,101736.03
2022-12-06T01:42:05.094Z,101744.03
2022-12-06T01:44:42.532Z,101741.22
2022-12-06T01:47:13.404Z,101746.47
2022-12-06T01:49:41.419Z,101745.72
2022-12-06T01:52:09.499Z,101739.03
2022-12-06T01:54:36.232Z,101740.28
2022-12-06T01:57:04.207Z,101744.56
2022-12-06T01:59:30.685Z,101741.81
2022-12-06T02:01:57.102Z,101742.25
2022-12-06T02:04:24.082Z,101740.97
2022-12-06T02:06:52.525Z,101738.69
2022-12-06T02:09:19.915Z,101734.50
2022-12-06T02:11:46.325Z,101739.19
2022-12-06T02:14:14.824Z,101736.75
2022-12-06T02:16:48.080Z,101734.50
2022-12-06T02:19:23.953Z,101735.72
2022-12-06T02:21:56.394Z,101730.06
2022-12-06T02:24:41.582Z,101728.75
2022-12-06T02:27:18.070Z,101736.56
2022-12-06T02:30:01.816Z,101732.56
2022-12-06T02:32:32.140Z,101736.38
2022-12-06T02:35:01.441Z,101728.56
2022-12-06T02:37:31.035Z,101721.16
2022-12-06T02:39:59.367Z,101729.41
2022-12-06T02:42:29.297Z,101718.53
2022-12-06T02:44:58.271Z,101718.72
2022-12-06T02:47:27.248Z,101720.94
2022-12-06T02:49:56.876Z,101721.78
2022-12-06T02:52:25.865Z,101719.47
2022-12-06T02:54:54.790Z,101713.66
2022-12-06T02:57:24.998Z,101712.69
2022-12-06T02:59:51.675Z,101710.63
2022-12-06T03:02:18.320Z,101710.22
2022-12-06T03:04:46.876Z,101709.56
2022-12-06T03:07:23.535Z,101714.94
2022-12-06T03:09:57.441Z,101708.84
2022-12-06T03:12:28.771Z,101714.22
2022-12-06T03:14:59.656Z,101711.47
2022-12-06T03:17:32.736Z,101711.75
2022-12-06T03:20:04.126Z,101711.00
2022-12-06T03:22:38.199Z,101715.16
2022-12-06T03:25:07.598Z,101717.28
2022-12-06T03:27:35.194Z,101715.06
2022-12-06T03:30:03.002Z,101714.41
2022-12-06T03:32:32.304Z,101715.16
2022-12-06T03:35:03.443Z,101713.66
2022-12-06T03:37:32.275Z,101706.59
2022-12-06T03:40:02.647Z,101702.19
2022-12-06T03:42:29.591Z,101711.00
2022-12-06T03:44:55.997Z,101712.53
2022-12-06T03:47:26.830Z,101714.00
2022-12-06T03:49:55.457Z,101710.03
2022-12-06T03:52:22.768Z,101715.31
2022-12-06T03:54:49.053Z,101708.53
2022-12-06T03:57:16.788Z,101704.31
2022-12-06T03:59:43.080Z,101704.56
2022-12-06T04:02:09.441Z,101706.91
2022-12-06T04:04:35.833Z,101707.41
2022-12-06T04:07:02.167Z,101703.28
2022-12-06T04:09:28.534Z,101711.25
2022-12-06T04:11:54.899Z,101714.13
2022-12-06T04:14:22.596Z,101714.00
2022-12-06T04:16:48.959Z,101713.91
2022-12-06T04:19:15.295Z,101707.88
2022-12-06T04:21:41.611Z,101711.66
2022-12-06T04:24:08.005Z,101709.88
2022-12-06T04:26:34.306Z,101710.81
2022-12-06T04:29:00.612Z,101712.53
2022-12-06T04:31:28.372Z,101714.22
2022-12-06T04:33:54.696Z,101711.66
2022-12-06T04:36:21.023Z,101722.00
2022-12-06T04:38:47.358Z,101713.38
2022-12-06T04:41:14.334Z,101713.47
2022-12-06T04:43:40.616Z,101718.53
2022-12-06T04:46:06.984Z,101722.72
2022-12-06T04:48:34.708Z,101720.75
2022-12-06T04:51:01.018Z,101716.34
2022-12-06T04:53:27.538Z,101721.78
2022-12-06T04:55:53.877Z,101711.94
2022-12-06T04:58:20.201Z,101716.06
2022-12-06T05:00:46.577Z,101712.59
2022-12-06T05:03:13.450Z,101706.66
2022-12-06T05:05:41.439Z,101719.72
2022-12-06T05:08:07.831Z,101719.53
2022-12-06T05:10:34.182Z,101713.31
2022-12-06T05:13:00.547Z,101720.16
2022-12-06T05:15:29.278Z,101715.75
2022-12-06T05:17:55.795Z,101716.91
2022-12-06T05:20:22.194Z,101718.69
2022-12-06T05:22:50.120Z,101723.22
2022-12-06T05:25:16.442Z,101713.44
2022-12-06T05:27:42.812Z,101716.25
2022-12-06T05:30:09.746Z,101714.06
2022-12-06T05:32:37.528Z,101706.91
2022-12-06T05:35:04.259Z,101713.22
2022-12-06T05:37:30.613Z,101709.94
2022-12-06T05:39:59.158Z,101705.41
2022-12-06T05:42:25.756Z,101708.03
2022-12-06T05:44:52.027Z,101698.47
2022-12-06T05:47:18.307Z,101696.47
2022-12-06T05:49:44.598Z,101702.69
2022-12-06T05:52:10.908Z,101701.72
2022-12-06T05:54:37.381Z,101704.38
2022-12-06T05:57:05.048Z,101705.31
2022-12-06T05:59:31.497Z,101714.38
2022-12-06T06:01:58.042Z,101707.31
2022-12-06T06:04:24.507Z,101715.31
2022-12-06T06:06:50.819Z,101720.16
2022-12-06T06:09:17.297Z,101714.81
2022-12-06T06:11:43.589Z,101718.00
2022-12-06T06:14:11.295Z,101711.31
2022-12-06T06:16:37.738Z,101707.66
2022-12-06T06:19:04.076Z,101714.06
2022-12-06T06:21:30.395Z,101714.91
2022-12-06T06:23:56.733Z,101712.06
2022-12-06T06:26:23.054Z,101712.06
2022-12-06T06:28:49.347Z,101712.16
2022-12-06T06:31:17.074Z,101710.78
2022-12-06T06:33:43.432Z,101708.88
2022-12-06T06:36:10.306Z,101703.84
2022-12-06T06:38:36.605Z,101708.88
2022-12-06T06:41:03.451Z,101703.00
2022-12-06T06:43:29.840Z,101717.19
2022-12-06T06:45:57.478Z,101713.03
2022-12-06T06:48:26.568Z,101711.41
2022-12-06T06:50:57.235Z,101710.88
2022-12-06T06:53:24.304Z,101711.66
2022-12-06T06:55:50.633Z,101708.59
2022-12-06T06:58:17.176Z,101711.31
2022-12-06T07:00:43.464Z,101704.47
2022-12-06T07:03:13.367Z,101713.03
2022-12-06T07:05:41.103Z,101704.78
2022-12-06T07:08:07.414Z,101706.84
2022-12-06T07:10:33.752Z,101708.16
2022-12-06T07:13:00.095Z,101712.69
2022-12-06T07:15:26.409Z,101708.25
2022-12-06T07:17:52.737Z,101713.06
2022-12-06T07:20:19.082Z,101709.56
2022-12-06T07:22:46.795Z,101699.25
2022-12-06T07:25:13.145Z,101707.88
2022-12-06T07:27:39.445Z,101700.81
2022-12-06T07:30:06.449Z,101701.59
2022-12-06T07:32:33.833Z,101701.78
2022-12-06T07:35:00.130Z,101699.03
2022-12-06T07:37:26.436Z,101699.97
2022-12-06T07:39:54.148Z,101713.28
2022-12-06T07:42:20.537Z,101714.13
2022-12-06T07:44:46.837Z,101717.28
2022-12-06T07:47:13.304Z,101713.63
2022-12-06T07:49:39.644Z,101714.47
2022-12-06T07:52:05.973Z,101711.50
2022-12-06T07:54:32.277Z,101720.34
2022-12-06T07:56:59.971Z,101721.19
2022-12-06T07:59:26.523Z,101720.25
2022-12-06T08:01:53.100Z,101730.88
2022-12-06T08:04:19.792Z,101735.44
2022-12-06T08:06:46.139Z,101737.22
2022-12-06T08:09:12.820Z,101737.31
2022-12-06T08:11:39.287Z,101747.25
2022-12-06T08:14:07.048Z,101740.69
2022-12-06T08:16:33.457Z,101738.91
2022-12-06T08:18:59.811Z,101740.47
2022-12-06T08:21:26.116Z,101742.94
2022-12-06T08:23:53.001Z,101736.22
2022-12-06T08:26:19.758Z,101738.13
2022-12-06T08:28:46.347Z,101748.84
2022-12-06T08:31:14.790Z,101752.25
2022-12-06T08:33:41.281Z,101749.09
2022-12-06T08:36:08.199Z,101751.47
2022-12-06T08:38:34.579Z,101752.88
2022-12-06T08:41:00.895Z,101757.59
2022-12-06T08:43:27.266Z,101751.75
2022-12-06T08:45:53.575Z,101754.31
2022-12-06T08:48:21.238Z,101755.34
2022-12-06T08:50:47.570Z,101756.56
2022-12-06T08:53:13.897Z,101756.66
2022-12-06T08:55:40.257Z,101759.38
2022-12-06T08:58:06.684Z,101761.44
2022-12-06T09:00:33.107Z,101759.38
2022-12-06T09:02:59.404Z,101766.63
2022-12-06T09:05:27.027Z,101759.06
2022-12-06T09:07:53.376Z,101761.25
2022-12-06T09:10:19.723Z,101761.81
2022-12-06T09:12:45.995Z,101766.69
2022-12-06T09:15:12.298Z,101762.28
2022-12-06T09:17:38.595Z,101762.06
2022-12-06T09:20:06.484Z,101761.16
2022-12-06T09:22:34.322Z,101768.19
2022-12-06T09:25:00.661Z,101758.28
2022-12-06T09:27:29.675Z,101756.72
2022-12-06T09:29:56.024Z,101760.28
2022-12-06T09:32:22.326Z,101759.53
2022-12-06T09:34:48.640Z,101757.34
2022-12-06T09:37:15.013Z,101753.13
2022-12-06T09:39:43.975Z,101759.22
2022-12-06T09:42:28.227Z,101762.72
2022-12-06T09:45:02.388Z,101761.56
2022-12-06T09:47:33.797Z,101762.31
2022-12-06T09:50:06.268Z,101755.19
2022-12-06T09:52:41.484Z,101767.38
2022-12-06T09:55:15.490Z,101760.88
2022-12-06T09:57:45.975Z,101760.78
2022-12-06T10:00:17.757Z,101764.78
2022-12-06T10:03:03.607Z,101772.41
2022-12-06T10:05:51.810Z,101767.22
2022-12-06T10:08:24.828Z,101773.69
2022-12-06T10:10:58.792Z,101766.84
2022-12-06T10:13:40.910Z,101766.19
2022-12-06T10:16:12.505Z,101763.22
2022-12-06T10:18:49.433Z,101765.97
2022-12-06T10:21:18.123Z,101769.59
2022-12-06T10:23:56.150Z,101772.31
2022-12-06T10:26:32.945Z,101762.47
2022-12-06T10:29:06.606Z,101752.97
2022-12-06T10:31:39.453Z,101754.25
2022-12-06T10:34:11.951Z,101747.66
2022-12-06T10:36:41.562Z,101751.38
2022-12-06T10:39:12.655Z,101749.91
2022-12-06T10:41:43.717Z,101748.75
2022-12-06T10:44:14.574Z,101756.34
2022-12-06T10:46:44.941Z,101752.44
2022-12-06T10:49:16.375Z,101754.25
2022-12-06T10:51:44.801Z,101757.09
2022-12-06T10:54:16.510Z,101756.22
2022-12-06T10:56:45.050Z,101751.38
2022-12-06T10:59:18.430Z,101741.66
2022-12-06T11:01:45.779Z,101744.44
2022-12-06T11:04:13.879Z,101737.38
2022-12-06T11:06:42.684Z,101738.84
2022-12-06T11:09:16.555Z,101744.31
2022-12-06T11:11:45.040Z,101743.75
2022-12-06T11:14:15.894Z,101744.59
2022-12-06T11:16:44.501Z,101746.28
2022-12-06T11:19:18.895Z,101747.00
2022-12-06T11:21:48.443Z,101744.47
2022-12-06T11:24:19.708Z,101745.97
2022-12-06T11:26:49.442Z,101750.22
2022-12-06T11:29:16.280Z,101748.81
2022-12-06T11:31:43.894Z,101746.63
2022-12-06T11:34:14.570Z,101748.22
2022-12-06T11:36:41.342Z,101742.81
2022-12-06T11:39:07.706Z,101744.19
2022-12-06T11:41:36.523Z,101740.28
2022-12-06T11:44:04.428Z,101741.44
2022-12-06T11:46:30.802Z,101738.25
2022-12-06T11:49:02.603Z,101736.28
2022-12-06T11:51:28.897Z,101724.13
2022-12-06T11:53:58.000Z,101729.50
2022-12-06T11:56:25.580Z,101732.38
2022-12-06T11:58:57.003Z,101730.91
2022-12-06T12:01:36.202Z,101728.03
2022-12-06T12:04:22.229Z,101722.97
2022-12-06T12:06:49.662Z,101722.34
2022-12-06T12:09:18.641Z,101725.06
2022-12-06T12:11:53.206Z,101725.59
2022-12-06T12:14:26.486Z,101719.50
2022-12-06T12:16:56.121Z,101713.59
2022-12-06T12:19:27.173Z,101710.84
2022-12-06T12:21:54.679Z,101709.03
2022-12-06T12:25:03.259Z,101702.09
2022-12-06T12:27:47.224Z,101709.06
2022-12-06T12:30:22.014Z,101710.84
2022-12-06T12:32:50.560Z,101710.75
2022-12-06T12:35:24.161Z,101709.47
2022-12-06T12:37:51.737Z,101706.91
2022-12-06T12:40:22.206Z,101701.44
2022-12-06T12:42:48.812Z,101701.88
2022-12-06T12:45:18.776Z,101710.84
2022-12-06T12:47:56.651Z,101716.00
2022-12-06T12:50:23.100Z,101699.75
2022-12-06T12:52:50.179Z,101696.34
2022-12-06T12:55:17.829Z,101688.88
2022-12-06T12:57:45.457Z,101694.25
2022-12-06T13:00:14.218Z,101696.91
2022-12-06T13:02:41.919Z,101691.06
2022-12-06T13:05:32.580Z,101690.56
2022-12-06T13:08:05.367Z,101699.75
2022-12-06T13:10:33.339Z,101690.66
2022-12-06T13:13:01.119Z,101701.41
2022-12-06T13:15:31.228Z,101695.19
2022-12-06T13:18:00.044Z,101694.81
2022-12-06T13:20:30.084Z,101685.38
2022-12-06T13:22:58.672Z,101688.88
2022-12-06T13:25:24.970Z,101689.81
2022-12-06T13:27:52.790Z,101681.81
2022-12-06T13:30:20.344Z,101681.16
2022-12-06T13:32:48.486Z,101682.00
2022-12-06T13:35:21.360Z,101682.09
2022-12-06T13:37:53.403Z,101677.97
2022-12-06T13:40:38.162Z,101681.06
2022-12-06T13:43:05.249Z,101685.50
2022-12-06T13:45:39.337Z,101682.00
2022-12-06T13:48:20.567Z,101691.69
2022-12-06T13:50:52.121Z,101684.84
2022-12-06T13:53:20.409Z,101683.56
2022-12-06T13:55:56.018Z,101681.78
2022-12-06T13:58:39.159Z,101680.50
2022-12-06T14:01:35.456Z,101669.44
2022-12-06T14:06:52.423Z,101674.66
2022-12-06T14:09:20.834Z,101673.59
2022-12-06T14:11:47.308Z,101672.13
2022-12-06T14:14:14.809Z,101668.09
2022-12-06T14:16:42.538Z,101670.97
2022-12-06T14:19:14.262Z,101668.34
2022-12-06T14:21:41.509Z,101668.09
2022-12-06T14:24:22.739Z,101667.91
2022-12-06T14:26:50.384Z,101662.97
2022-12-06T14:29:20.915Z,101675.91
2022-12-06T14:31:49.414Z,101658.94
2022-12-06T14:34:23.409Z,101660.94
2022-12-06T14:36:49.711Z,101654.72
2022-12-06T14:39:18.039Z,101656.69
2022-12-06T14:41:52.349Z,101652.41
2022-12-06T14:44:19.647Z,101656.84
2022-12-06T14:46:46.992Z,101656.09
2022-12-06T14:49:14.092Z,101654.31
2022-12-06T14:51:40.566Z,101649.97
2022-12-06T14:54:16.849Z,101649.13
2022-12-06T14:56:43.480Z,101650.94
2022-12-06T14:59:12.159Z,101643.97
2022-12-06T15:01:45.908Z,101644.69
2022-12-06T15:04:23.870Z,101647.44
2022-12-06T15:06:52.108Z,101644.91
2022-12-06T15:09:18.433Z,101644.16
2022-12-06T15:11:44.769Z,101639.63
2022-12-06T15:14:14.554Z,101635.19
2022-12-06T15:16:42.102Z,101637.00
2022-12-06T15:19:11.713Z,101637.00
2022-12-06T15:21:38.141Z,101633.50
2022-12-06T15:24:13.210Z,101629.28
2022-12-06T15:26:39.520Z,101638.16
2022-12-06T15:29:05.994Z,101636.69
2022-12-06T15:31:34.871Z,101633.31
2022-12-06T15:34:01.242Z,101644.81
2022-12-06T15:36:28.408Z,101636.91
2022-12-06T15:38:54.744Z,101645.81
2022-12-06T15:41:21.810Z,101644.13
2022-12-06T15:43:48.509Z,101635.38
2022-12-06T15:46:17.222Z,101628.44
2022-12-06T15:48:44.959Z,101639.84
2022-12-06T15:51:18.878Z,101632.22
2022-12-06T15:53:47.430Z,101634.13
2022-12-06T15:56:14.603Z,101630.75
2022-12-06T15:58:40.907Z,101635.28
2022-12-06T16:01:13.970Z,101643.41
2022-12-06T16:03:40.329Z,101643.53
2022-12-06T16:06:10.767Z,101646.25
2022-12-06T16:08:37.160Z,101641.94
2022-12-06T16:11:11.663Z,101648.16
2022-12-06T16:13:38.619Z,101646.44
2022-12-06T16:16:05.468Z,101648.25
2022-12-06T16:18:31.981Z,101652.56
2022-12-06T16:20:58.518Z,101645.50
2022-12-06T16:23:43.138Z,101639.38
2022-12-06T16:26:13.746Z,101637.59
2022-12-06T16:28:40.320Z,101637.59
2022-12-06T16:31:06.991Z,101636.75
2022-12-06T16:33:33.702Z,101635.91
2022-12-06T16:36:02.656Z,101635.19
2022-12-06T16:38:30.367Z,101637.09
2022-12-06T16:40:59.731Z,101638.78
2022-12-06T16:43:30.061Z,101630.13
2022-12-06T16:45:56.396Z,101624.97
2022-12-06T16:48:22.696Z,101617.91
2022-12-06T16:50:49.009Z,101621.56
2022-12-06T16:53:15.329Z,101618.94
2022-12-06T16:55:43.393Z,101611.88
2022-12-06T16:58:10.297Z,101617.25
2022-12-06T17:00:37.060Z,101622.41
2022-12-06T17:03:03.429Z,101614.72
2022-12-06T17:05:29.842Z,101616.41
2022-12-06T17:07:56.232Z,101617.44
2022-12-06T17:10:22.710Z,101618.28
2022-12-06T17:12:50.350Z,101618.28
2022-12-06T17:15:18.422Z,101611.22
2022-12-06T17:17:45.060Z,101613.03
2022-12-06T17:20:12.187Z,101618.28
2022-12-06T17:22:38.573Z,101614.72
2022-12-06T17:25:05.168Z,101615.66
2022-12-06T17:27:31.461Z,101619.13
2022-12-06T17:29:59.171Z,101618.28
2022-12-06T17:32:26.043Z,101613.03
2022-12-06T17:34:52.384Z,101612.94
2022-12-06T17:37:18.660Z,101612.94
2022-12-06T17:39:45.231Z,101613.78
2022-12-06T17:42:12.417Z,101613.78
2022-12-06T17:44:38.723Z,101612.19
2022-12-06T17:47:06.594Z,101611.22
2022-12-06T17:49:32.909Z,101616.63
2022-12-06T17:51:59.195Z,101611.47
2022-12-06T17:54:25.465Z,101605.13
2022-12-06T17:56:52.582Z,101609.53
2022-12-06T17:59:20.615Z,101601.53
2022-12-06T18:04:34.677Z,101602.63
2022-12-06T18:07:00.971Z,101593.88
2022-12-06T18:09:27.410Z,101599.97
2022-12-06T18:11:53.768Z,101594.72
2022-12-06T18:14:20.051Z,101594.91
2022-12-06T18:16:46.457Z,101597.34
2022-12-06T18:19:14.163Z,101590.38
2022-12-06T18:21:41.884Z,101593.44
2022-12-06T18:24:29.285Z,101595.13
2022-12-06T18:26:55.475Z,101587.53
2022-12-06T18:29:23.014Z,101592.06
2022-12-06T18:31:49.542Z,101579.84
2022-12-06T18:34:15.962Z,101585.09
2022-12-06T18:36:43.627Z,101586.16
2022-12-06T18:39:14.823Z,101584.47
2022-12-06T18:41:41.559Z,101594.16
2022-12-06T18:44:09.306Z,101590.69
2022-12-06T18:46:35.650Z,101596.03
2022-12-06T18:49:01.993Z,101594.34
2022-12-06T18:51:30.121Z,101597.00
2022-12-06T18:53:58.437Z,101601.31
2022-12-06T18:56:25.606Z,101590.69
2022-12-06T18:58:52.129Z,101595.19
2022-12-06T19:01:19.769Z,101590.56
2022-12-06T19:03:46.404Z,101586.25
2022-12-06T19:06:15.481Z,101585.41
2022-12-06T19:08:41.856Z,101584.56
2022-12-06T19:11:09.951Z,101579.28
2022-12-06T19:13:36.297Z,101583.72
2022-12-06T19:16:02.722Z,101581.94
2022-12-06T19:18:29.020Z,101584.56
2022-12-06T19:20:59.170Z,101585.59
2022-12-06T19:23:26.148Z,101580.34
2022-12-06T19:25:52.466Z,101589.22
2022-12-06T19:28:20.138Z,101579.53
2022-12-06T19:30:55.262Z,101576.03
2022-12-06T19:33:21.606Z,101572.56
2022-12-06T19:35:55.340Z,101571.72
2022-12-06T19:38:21.649Z,101577.09
2022-12-06T19:40:48.020Z,101574.47
2022-12-06T19:43:14.359Z,101585.84
2022-12-06T19:45:42.061Z,101584.25
2022-12-06T19:48:08.398Z,101574.75
2022-12-06T19:50:34.696Z,101581.63
2022-12-06T19:53:01.007Z,101580.75
2022-12-06T19:55:27.325Z,101575.50
2022-12-06T19:57:53.634Z,101565.06
2022-12-06T20:00:22.953Z,101578.13
2022-12-06T20:02:50.839Z,101575.41
2022-12-06T20:05:17.201Z,101577.19
2022-12-06T20:07:43.521Z,101573.41
2022-12-06T20:10:10.169Z,101576.16
2022-12-06T20:12:36.501Z,101578.97
2022-12-06T20:15:02.847Z,101582.34
2022-12-06T20:17:29.148Z,101577.00
2022-12-06T20:19:56.795Z,101575.31
2022-12-06T20:22:23.121Z,101572.03
2022-12-06T20:24:49.431Z,101565.72
2022-12-06T20:27:15.705Z,101575.50
2022-12-06T20:29:42.140Z,101572.75
2022-12-06T20:32:09.359Z,101577.00
2022-12-06T20:34:35.688Z,101586.69
2022-12-06T20:37:04.429Z,101589.41
2022-12-06T20:39:30.744Z,101576.44
2022-12-06T20:41:57.072Z,101583.41
2022-12-06T20:44:23.361Z,101574.66
2022-12-06T20:46:49.936Z,101573.81
2022-12-06T20:49:16.375Z,101567.78
2022-12-06T20:51:42.801Z,101565.41
2022-12-06T20:54:11.814Z,101568.75
2022-12-06T20:56:38.979Z,101564.84
2022-12-06T20:59:06.066Z,101573.59
2022-12-06T21:01:33.986Z,101571.06
2022-12-06T21:04:00.362Z,101563.34
2022-12-06T21:06:26.887Z,101560.72
2022-12-06T21:08:53.256Z,101562.63
2022-12-06T21:11:23.360Z,101564.19
2022-12-06T21:13:50.171Z,101563.34
2022-12-06T21:16:17.542Z,101560.63
2022-12-06T21:18:44.572Z,101562.13
2022-12-06T21:21:11.042Z,101561.16
2022-12-06T21:23:37.357Z,101566.34
2022-12-06T21:26:04.172Z,101564.75
2022-12-06T21:28:32.199Z,101566.34
2022-12-06T21:30:58.846Z,101562.00
2022-12-06T21:33:25.534Z,101558.53
2022-12-06T21:35:52.341Z,101566.44
2022-12-06T21:38:18.626Z,101568.31
2022-12-06T21:40:49.371Z,101563.81
2022-12-06T21:43:19.361Z,101557.16
2022-12-06T21:45:47.067Z,101552.00
2022-12-06T21:48:13.425Z,101552.94
2022-12-06T21:50:39.739Z,101555.06
2022-12-06T21:53:06.073Z,101551.47
2022-12-06T21:55:32.393Z,101552.72
2022-12-06T21:57:58.667Z,101556.53
2022-12-06T22:00:24.980Z,101564.72
2022-12-06T22:02:52.801Z,101557.66
2022-12-06T22:05:19.273Z,101556.06
2022-12-06T22:07:45.644Z,101558.19
2022-12-06T22:10:12.261Z,101567.78
2022-12-06T22:12:38.698Z,101566.19
2022-12-06T22:15:05.582Z,101562.91
2022-12-06T22:17:31.983Z,101569.00
2022-12-06T22:20:00.098Z,101569.09
2022-12-06T22:22:26.722Z,101569.94
2022-12-06T22:24:53.006Z,101562.06
2022-12-06T22:27:19.324Z,101564.69
2022-12-06T22:29:46.147Z,101572.78
2022-12-06T22:32:12.587Z,101567.94
2022-12-06T22:34:38.890Z,101559.28
2022-12-06T22:37:06.607Z,101561.31
2022-12-06T22:39:32.949Z,101556.75
2022-12-06T22:41:59.315Z,101560.66
2022-12-06T22:44:25.662Z,101564.41
2022-12-06T22:46:52.008Z,101571.69
2022-12-06T22:49:18.498Z,101571.13
2022-12-06T22:51:44.999Z,101571.22
2022-12-06T22:54:13.535Z,101563.66
2022-12-06T22:56:40.679Z,101561.88
2022-12-06T22:59:07.039Z,101567.13
2022-12-06T23:01:34.645Z,101555.00
2022-12-06T23:04:02.174Z,101556.88
2022-12-06T23:06:28.660Z,101555.09
2022-12-06T23:08:55.684Z,101549.09
2022-12-06T23:11:24.466Z,101556.03
2022-12-06T23:13:50.788Z,101556.31
2022-12-06T23:16:18.083Z,101552.97
2022-12-06T23:18:44.940Z,101545.19
2022-12-06T23:21:12.277Z,101540.94
2022-12-06T23:23:39.079Z,101532.50
2022-12-06T23:26:06.369Z,101539.75
2022-12-06T23:28:34.231Z,101545.03
2022-12-06T23:31:04.293Z,101543.72
2022-12-06T23:33:31.241Z,101543.09
2022-12-06T23:36:01.201Z,101543.38
2022-12-06T23:38:27.495Z,101537.56
2022-12-06T23:40:53.824Z,101545.66
2022-12-06T23:43:20.178Z,101549.31
2022-12-06T23:45:57.902Z,101542.53
2022-12-06T23:48:25.717Z,101544.53
2022-12-06T23:50:58.220Z,101549.13
2022-12-06T23:53:24.548Z,101543.22
2022-12-06T23:55:50.856Z,101543.53
2022-12-06T23:58:17.155Z,101548.47
